Terminal Aerodrome Forecast
Issued by NWS Bismarck, ND

Home | Current Version | Previous Version | Text Only | Print | Product List | Glossary On
Versions: 1 2 3 4 5 6 7 8 9 10 11 12 13 14 15 16 17 18 19 20 21 22 23
000
FTUS43 KBIS 201730
TAFBIS
TAF
KBIS 201730Z 2018/2118 30012KT P6SM SCT015 SCT030 SCT100
     FM202100 29012KT P6SM SCT040 SCT060 SCT090
     FM202300 27009KT P6SM FEW200
     FM210500 25005KT P6SM SKC=

USA.gov is the U.S. government's official web portal to all federal, state and local government web resources and services.